sensor_id;sensor_type;location;lat;lon;timestamp;P1;durP1;ratioP1;P2;durP2;ratioP2
41925;SDS011;27615;51.826;5.692;2022-08-27T00:01:23;4.70;;;1.95;;
41925;SDS011;27615;51.826;5.692;2022-08-27T00:03:49;4.60;;;2.00;;
41925;SDS011;27615;51.826;5.692;2022-08-27T00:06:15;2.15;;;1.23;;
41925;SDS011;27615;51.826;5.692;2022-08-27T00:08:43;3.30;;;1.27;;
41925;SDS011;27615;51.826;5.692;2022-08-27T00:11:10;2.22;;;1.30;;
41925;SDS011;27615;51.826;5.692;2022-08-27T00:13:35;2.00;;;1.13;;
41925;SDS011;27615;51.826;5.692;2022-08-27T00:16:02;2.03;;;1.00;;
41925;SDS011;27615;51.826;5.692;2022-08-27T00:18:33;2.13;;;0.90;;
41925;SDS011;27615;51.826;5.692;2022-08-27T00:21:00;2.53;;;0.80;;
41925;SDS011;27615;51.826;5.692;2022-08-27T00:23:26;2.25;;;0.98;;
41925;SDS011;27615;51.826;5.692;2022-08-27T00:25:52;2.63;;;1.02;;
41925;SDS011;27615;51.826;5.692;2022-08-27T00:28:18;1.98;;;1.10;;
41925;SDS011;27615;51.826;5.692;2022-08-27T00:30:43;2.58;;;0.80;;
41925;SDS011;27615;51.826;5.692;2022-08-27T00:33:09;3.00;;;1.00;;
41925;SDS011;27615;51.826;5.692;2022-08-27T00:35:34;2.70;;;0.70;;
41925;SDS011;27615;51.826;5.692;2022-08-27T00:38:00;3.15;;;0.80;;
41925;SDS011;27615;51.826;5.692;2022-08-27T00:40:26;3.30;;;0.80;;
41925;SDS011;27615;51.826;5.692;2022-08-27T00:42:52;3.65;;;0.90;;
41925;SDS011;27615;51.826;5.692;2022-08-27T00:45:19;2.00;;;1.00;;
41925;SDS011;27615;51.826;5.692;2022-08-27T00:47:48;5.53;;;0.98;;
41925;SDS011;27615;51.826;5.692;2022-08-27T00:50:20;1.55;;;0.75;;
41925;SDS011;27615;51.826;5.692;2022-08-27T00:52:59;1.85;;;0.80;;
41925;SDS011;27615;51.826;5.692;2022-08-27T00:55:29;5.78;;;1.08;;
41925;SDS011;27615;51.826;5.692;2022-08-27T00:58:02;2.50;;;0.90;;
41925;SDS011;27615;51.826;5.692;2022-08-27T01:02:54;1.83;;;0.77;;
41925;SDS011;27615;51.826;5.692;2022-08-27T01:05:21;2.20;;;0.88;;
41925;SDS011;27615;51.826;5.692;2022-08-27T01:07:50;4.28;;;1.60;;
41925;SDS011;27615;51.826;5.692;2022-08-27T01:10:20;3.88;;;1.15;;
41925;SDS011;27615;51.826;5.692;2022-08-27T01:12:48;2.67;;;1.00;;
41925;SDS011;27615;51.826;5.692;2022-08-27T01:15:16;2.05;;;1.00;;
41925;SDS011;27615;51.826;5.692;2022-08-27T01:17:43;3.22;;;0.90;;
41925;SDS011;27615;51.826;5.692;2022-08-27T01:20:17;2.43;;;0.90;;
41925;SDS011;27615;51.826;5.692;2022-08-27T01:25:42;2.40;;;0.73;;
41925;SDS011;27615;51.826;5.692;2022-08-27T01:28:09;1.35;;;0.80;;
41925;SDS011;27615;51.826;5.692;2022-08-27T01:30:36;2.08;;;0.77;;
41925;SDS011;27615;51.826;5.692;2022-08-27T01:33:12;3.30;;;1.10;;
41925;SDS011;27615;51.826;5.692;2022-08-27T01:35:40;1.80;;;0.85;;
41925;SDS011;27615;51.826;5.692;2022-08-27T01:38:07;2.17;;;0.80;;
41925;SDS011;27615;51.826;5.692;2022-08-27T01:40:34;1.90;;;0.88;;
41925;SDS011;27615;51.826;5.692;2022-08-27T01:43:00;3.92;;;0.93;;
41925;SDS011;27615;51.826;5.692;2022-08-27T01:45:28;2.88;;;0.80;;
41925;SDS011;27615;51.826;5.692;2022-08-27T01:47:56;2.70;;;0.97;;
41925;SDS011;27615;51.826;5.692;2022-08-27T01:50:24;2.17;;;0.80;;
41925;SDS011;27615;51.826;5.692;2022-08-27T01:52:51;1.80;;;1.00;;
41925;SDS011;27615;51.826;5.692;2022-08-27T01:55:19;1.95;;;0.90;;
41925;SDS011;27615;51.826;5.692;2022-08-27T01:57:47;1.70;;;1.05;;
41925;SDS011;27615;51.826;5.692;2022-08-27T02:00:15;2.17;;;0.90;;
41925;SDS011;27615;51.826;5.692;2022-08-27T02:02:44;2.25;;;0.98;;
41925;SDS011;27615;51.826;5.692;2022-08-27T02:05:10;2.50;;;1.00;;
41925;SDS011;27615;51.826;5.692;2022-08-27T02:07:37;2.03;;;0.93;;
41925;SDS011;27615;51.826;5.692;2022-08-27T02:10:04;2.83;;;2.08;;
41925;SDS011;27615;51.826;5.692;2022-08-27T02:12:31;2.95;;;0.90;;
41925;SDS011;27615;51.826;5.692;2022-08-27T02:14:57;2.45;;;0.80;;
41925;SDS011;27615;51.826;5.692;2022-08-27T02:17:22;3.30;;;1.30;;
41925;SDS011;27615;51.826;5.692;2022-08-27T02:19:48;1.80;;;1.13;;
41925;SDS011;27615;51.826;5.692;2022-08-27T02:22:13;1.83;;;1.20;;
41925;SDS011;27615;51.826;5.692;2022-08-27T02:24:39;2.90;;;1.30;;
41925;SDS011;27615;51.826;5.692;2022-08-27T02:27:05;3.83;;;1.35;;
41925;SDS011;27615;51.826;5.692;2022-08-27T02:29:30;3.42;;;0.90;;
41925;SDS011;27615;51.826;5.692;2022-08-27T02:31:57;2.30;;;1.20;;
41925;SDS011;27615;51.826;5.692;2022-08-27T02:34:23;1.77;;;0.98;;
41925;SDS011;27615;51.826;5.692;2022-08-27T02:36:49;3.28;;;1.13;;
41925;SDS011;27615;51.826;5.692;2022-08-27T02:39:17;2.83;;;1.20;;
41925;SDS011;27615;51.826;5.692;2022-08-27T02:41:43;2.15;;;0.82;;
41925;SDS011;27615;51.826;5.692;2022-08-27T02:44:09;1.77;;;1.05;;
41925;SDS011;27615;51.826;5.692;2022-08-27T02:46:35;2.63;;;0.90;;
41925;SDS011;27615;51.826;5.692;2022-08-27T02:49:02;1.55;;;1.00;;
41925;SDS011;27615;51.826;5.692;2022-08-27T02:51:28;3.65;;;1.10;;
41925;SDS011;27615;51.826;5.692;2022-08-27T02:53:53;2.13;;;1.02;;
41925;SDS011;27615;51.826;5.692;2022-08-27T02:56:19;2.30;;;1.05;;
41925;SDS011;27615;51.826;5.692;2022-08-27T02:58:44;2.17;;;1.00;;
41925;SDS011;27615;51.826;5.692;2022-08-27T03:01:10;2.55;;;1.08;;
41925;SDS011;27615;51.826;5.692;2022-08-27T03:03:35;2.88;;;1.30;;
41925;SDS011;27615;51.826;5.692;2022-08-27T03:06:01;2.85;;;1.10;;
41925;SDS011;27615;51.826;5.692;2022-08-27T03:08:27;2.65;;;1.10;;
41925;SDS011;27615;51.826;5.692;2022-08-27T03:10:53;3.47;;;1.38;;
41925;SDS011;27615;51.826;5.692;2022-08-27T03:13:20;3.65;;;1.08;;
41925;SDS011;27615;51.826;5.692;2022-08-27T03:15:46;1.98;;;1.52;;
41925;SDS011;27615;51.826;5.692;2022-08-27T03:18:12;4.28;;;1.15;;
41925;SDS011;27615;51.826;5.692;2022-08-27T03:20:53;4.60;;;1.23;;
41925;SDS011;27615;51.826;5.692;2022-08-27T03:23:24;2.00;;;1.35;;
41925;SDS011;27615;51.826;5.692;2022-08-27T03:25:52;1.63;;;1.00;;
41925;SDS011;27615;51.826;5.692;2022-08-27T03:28:25;2.90;;;1.13;;
41925;SDS011;27615;51.826;5.692;2022-08-27T03:30:54;3.83;;;1.33;;
41925;SDS011;27615;51.826;5.692;2022-08-27T03:33:25;1.80;;;1.45;;
41925;SDS011;27615;51.826;5.692;2022-08-27T03:35:52;2.40;;;1.17;;
41925;SDS011;27615;51.826;5.692;2022-08-27T03:38:18;2.80;;;1.08;;
41925;SDS011;27615;51.826;5.692;2022-08-27T03:40:45;5.38;;;1.45;;
41925;SDS011;27615;51.826;5.692;2022-08-27T03:43:11;3.47;;;1.70;;
41925;SDS011;27615;51.826;5.692;2022-08-27T03:45:37;2.17;;;1.05;;
41925;SDS011;27615;51.826;5.692;2022-08-27T03:48:03;2.40;;;1.30;;
41925;SDS011;27615;51.826;5.692;2022-08-27T03:50:30;1.65;;;1.10;;
41925;SDS011;27615;51.826;5.692;2022-08-27T03:52:56;2.65;;;1.55;;
41925;SDS011;27615;51.826;5.692;2022-08-27T03:55:22;2.00;;;1.10;;
41925;SDS011;27615;51.826;5.692;2022-08-27T03:57:48;2.60;;;1.42;;
41925;SDS011;27615;51.826;5.692;2022-08-27T04:00:14;2.83;;;1.00;;
41925;SDS011;27615;51.826;5.692;2022-08-27T04:02:40;2.40;;;1.17;;
41925;SDS011;27615;51.826;5.692;2022-08-27T04:05:07;2.95;;;1.45;;
41925;SDS011;27615;51.826;5.692;2022-08-27T04:07:35;1.98;;;1.20;;
41925;SDS011;27615;51.826;5.692;2022-08-27T04:10:01;3.50;;;1.25;;
41925;SDS011;27615;51.826;5.692;2022-08-27T04:12:27;3.30;;;1.55;;
41925;SDS011;27615;51.826;5.692;2022-08-27T04:14:52;3.63;;;1.33;;
41925;SDS011;27615;51.826;5.692;2022-08-27T04:17:18;2.78;;;1.38;;
41925;SDS011;27615;51.826;5.692;2022-08-27T04:19:43;2.97;;;1.50;;
41925;SDS011;27615;51.826;5.692;2022-08-27T04:22:09;3.60;;;1.30;;
41925;SDS011;27615;51.826;5.692;2022-08-27T04:24:35;3.28;;;1.52;;
41925;SDS011;27615;51.826;5.692;2022-08-27T04:27:02;2.90;;;1.20;;
41925;SDS011;27615;51.826;5.692;2022-08-27T04:29:29;2.35;;;1.27;;
41925;SDS011;27615;51.826;5.692;2022-08-27T04:31:55;4.80;;;1.25;;
41925;SDS011;27615;51.826;5.692;2022-08-27T04:34:21;4.28;;;1.20;;
41925;SDS011;27615;51.826;5.692;2022-08-27T04:36:47;3.85;;;1.35;;
41925;SDS011;27615;51.826;5.692;2022-08-27T04:39:14;3.20;;;1.40;;
41925;SDS011;27615;51.826;5.692;2022-08-27T04:41:39;3.53;;;1.10;;
41925;SDS011;27615;51.826;5.692;2022-08-27T04:44:06;2.65;;;1.30;;
41925;SDS011;27615;51.826;5.692;2022-08-27T04:46:37;2.17;;;1.50;;
41925;SDS011;27615;51.826;5.692;2022-08-27T04:49:05;2.40;;;1.23;;
41925;SDS011;27615;51.826;5.692;2022-08-27T04:51:34;1.77;;;0.95;;
41925;SDS011;27615;51.826;5.692;2022-08-27T04:54:00;2.72;;;1.50;;
41925;SDS011;27615;51.826;5.692;2022-08-27T04:56:27;4.55;;;1.33;;
41925;SDS011;27615;51.826;5.692;2022-08-27T04:58:53;3.65;;;1.35;;
41925;SDS011;27615;51.826;5.692;2022-08-27T05:01:20;3.55;;;1.13;;
41925;SDS011;27615;51.826;5.692;2022-08-27T05:03:50;3.55;;;1.50;;
41925;SDS011;27615;51.826;5.692;2022-08-27T05:06:16;2.92;;;1.20;;
41925;SDS011;27615;51.826;5.692;2022-08-27T05:08:41;2.63;;;1.40;;
41925;SDS011;27615;51.826;5.692;2022-08-27T05:11:12;3.00;;;1.58;;
41925;SDS011;27615;51.826;5.692;2022-08-27T05:13:39;3.83;;;1.40;;
41925;SDS011;27615;51.826;5.692;2022-08-27T05:16:07;3.05;;;1.58;;
41925;SDS011;27615;51.826;5.692;2022-08-27T05:18:36;1.83;;;1.27;;
41925;SDS011;27615;51.826;5.692;2022-08-27T05:21:02;3.55;;;1.35;;
41925;SDS011;27615;51.826;5.692;2022-08-27T05:23:28;5.78;;;1.35;;
41925;SDS011;27615;51.826;5.692;2022-08-27T05:25:54;4.47;;;1.08;;
41925;SDS011;27615;51.826;5.692;2022-08-27T05:28:21;2.42;;;1.38;;
41925;SDS011;27615;51.826;5.692;2022-08-27T05:30:49;2.75;;;1.50;;
41925;SDS011;27615;51.826;5.692;2022-08-27T05:33:18;3.75;;;1.48;;
41925;SDS011;27615;51.826;5.692;2022-08-27T05:35:47;2.65;;;1.50;;
41925;SDS011;27615;51.826;5.692;2022-08-27T05:38:14;1.75;;;1.15;;
41925;SDS011;27615;51.826;5.692;2022-08-27T05:40:42;3.03;;;1.80;;
41925;SDS011;27615;51.826;5.692;2022-08-27T05:43:08;3.45;;;2.00;;
41925;SDS011;27615;51.826;5.692;2022-08-27T05:45:46;3.95;;;1.77;;
41925;SDS011;27615;51.826;5.692;2022-08-27T05:48:16;4.38;;;2.15;;
41925;SDS011;27615;51.826;5.692;2022-08-27T05:50:42;4.22;;;1.73;;
41925;SDS011;27615;51.826;5.692;2022-08-27T05:53:09;3.85;;;1.90;;
41925;SDS011;27615;51.826;5.692;2022-08-27T05:55:40;4.65;;;2.30;;
41925;SDS011;27615;51.826;5.692;2022-08-27T05:58:08;4.75;;;2.15;;
41925;SDS011;27615;51.826;5.692;2022-08-27T06:00:55;4.80;;;1.77;;
41925;SDS011;27615;51.826;5.692;2022-08-27T06:03:30;2.28;;;1.38;;
41925;SDS011;27615;51.826;5.692;2022-08-27T06:06:00;3.97;;;1.50;;
41925;SDS011;27615;51.826;5.692;2022-08-27T06:08:31;3.03;;;1.65;;
41925;SDS011;27615;51.826;5.692;2022-08-27T06:10:58;3.55;;;2.45;;
41925;SDS011;27615;51.826;5.692;2022-08-27T06:13:29;6.15;;;1.98;;
41925;SDS011;27615;51.826;5.692;2022-08-27T06:16:09;4.68;;;2.33;;
41925;SDS011;27615;51.826;5.692;2022-08-27T06:18:39;4.00;;;1.95;;
41925;SDS011;27615;51.826;5.692;2022-08-27T06:21:06;3.63;;;1.70;;
41925;SDS011;27615;51.826;5.692;2022-08-27T06:23:35;4.90;;;1.83;;
41925;SDS011;27615;51.826;5.692;2022-08-27T06:26:04;3.35;;;1.40;;
41925;SDS011;27615;51.826;5.692;2022-08-27T06:28:31;6.28;;;2.40;;
41925;SDS011;27615;51.826;5.692;2022-08-27T06:33:33;4.97;;;2.00;;
41925;SDS011;27615;51.826;5.692;2022-08-27T06:35:59;3.28;;;1.85;;
41925;SDS011;27615;51.826;5.692;2022-08-27T06:38:26;4.18;;;1.83;;
41925;SDS011;27615;51.826;5.692;2022-08-27T06:40:53;4.28;;;2.22;;
41925;SDS011;27615;51.826;5.692;2022-08-27T06:43:20;6.68;;;1.77;;
41925;SDS011;27615;51.826;5.692;2022-08-27T06:45:46;3.45;;;1.38;;
41925;SDS011;27615;51.826;5.692;2022-08-27T06:48:12;4.55;;;1.73;;
41925;SDS011;27615;51.826;5.692;2022-08-27T06:50:38;5.25;;;1.48;;
41925;SDS011;27615;51.826;5.692;2022-08-27T06:53:04;2.75;;;1.30;;
41925;SDS011;27615;51.826;5.692;2022-08-27T06:55:30;4.07;;;1.70;;
41925;SDS011;27615;51.826;5.692;2022-08-27T06:57:55;3.50;;;1.60;;
41925;SDS011;27615;51.826;5.692;2022-08-27T07:00:21;3.67;;;1.67;;
41925;SDS011;27615;51.826;5.692;2022-08-27T07:02:46;3.60;;;1.52;;
41925;SDS011;27615;51.826;5.692;2022-08-27T07:05:13;7.43;;;1.60;;
41925;SDS011;27615;51.826;5.692;2022-08-27T07:07:38;3.65;;;1.73;;
41925;SDS011;27615;51.826;5.692;2022-08-27T07:10:04;3.80;;;1.23;;
41925;SDS011;27615;51.826;5.692;2022-08-27T07:12:31;2.67;;;1.30;;
41925;SDS011;27615;51.826;5.692;2022-08-27T07:14:57;2.85;;;1.30;;
41925;SDS011;27615;51.826;5.692;2022-08-27T07:17:22;5.63;;;1.33;;
41925;SDS011;27615;51.826;5.692;2022-08-27T07:19:48;2.67;;;1.10;;
41925;SDS011;27615;51.826;5.692;2022-08-27T07:22:13;2.55;;;0.90;;
41925;SDS011;27615;51.826;5.692;2022-08-27T07:24:39;2.75;;;1.33;;
41925;SDS011;27615;51.826;5.692;2022-08-27T07:27:05;2.80;;;1.52;;
41925;SDS011;27615;51.826;5.692;2022-08-27T07:29:31;4.63;;;1.38;;
41925;SDS011;27615;51.826;5.692;2022-08-27T07:31:57;3.03;;;1.05;;
41925;SDS011;27615;51.826;5.692;2022-08-27T07:34:22;3.05;;;0.90;;
41925;SDS011;27615;51.826;5.692;2022-08-27T07:36:48;4.72;;;1.17;;
41925;SDS011;27615;51.826;5.692;2022-08-27T07:39:15;2.85;;;1.13;;
41925;SDS011;27615;51.826;5.692;2022-08-27T07:41:41;4.45;;;1.23;;
41925;SDS011;27615;51.826;5.692;2022-08-27T07:44:25;3.03;;;1.15;;
41925;SDS011;27615;51.826;5.692;2022-08-27T07:46:52;4.93;;;1.23;;
41925;SDS011;27615;51.826;5.692;2022-08-27T07:49:19;3.30;;;1.15;;
41925;SDS011;27615;51.826;5.692;2022-08-27T07:51:46;2.58;;;1.02;;
41925;SDS011;27615;51.826;5.692;2022-08-27T07:54:12;2.88;;;0.80;;
41925;SDS011;27615;51.826;5.692;2022-08-27T07:56:38;2.75;;;1.10;;
41925;SDS011;27615;51.826;5.692;2022-08-27T07:59:04;3.35;;;1.10;;
41925;SDS011;27615;51.826;5.692;2022-08-27T08:01:30;3.95;;;1.20;;
41925;SDS011;27615;51.826;5.692;2022-08-27T08:03:56;3.58;;;0.93;;
41925;SDS011;27615;51.826;5.692;2022-08-27T08:06:22;2.97;;;1.10;;
41925;SDS011;27615;51.826;5.692;2022-08-27T08:08:47;3.28;;;0.90;;
41925;SDS011;27615;51.826;5.692;2022-08-27T08:11:14;2.22;;;0.90;;
41925;SDS011;27615;51.826;5.692;2022-08-27T08:13:41;1.63;;;0.70;;
41925;SDS011;27615;51.826;5.692;2022-08-27T08:16:07;2.40;;;0.70;;
41925;SDS011;27615;51.826;5.692;2022-08-27T08:18:37;2.17;;;0.80;;
41925;SDS011;27615;51.826;5.692;2022-08-27T08:21:04;2.50;;;0.73;;
41925;SDS011;27615;51.826;5.692;2022-08-27T08:23:34;1.60;;;0.70;;
41925;SDS011;27615;51.826;5.692;2022-08-27T08:26:16;2.42;;;0.95;;
41925;SDS011;27615;51.826;5.692;2022-08-27T08:28:42;3.85;;;0.90;;
41925;SDS011;27615;51.826;5.692;2022-08-27T08:31:08;2.78;;;0.93;;
41925;SDS011;27615;51.826;5.692;2022-08-27T08:33:34;2.15;;;0.75;;
41925;SDS011;27615;51.826;5.692;2022-08-27T08:36:05;1.98;;;0.80;;
41925;SDS011;27615;51.826;5.692;2022-08-27T08:38:36;2.22;;;0.70;;
41925;SDS011;27615;51.826;5.692;2022-08-27T08:41:03;2.00;;;0.85;;
41925;SDS011;27615;51.826;5.692;2022-08-27T08:43:52;2.90;;;0.70;;
41925;SDS011;27615;51.826;5.692;2022-08-27T08:46:29;2.35;;;0.73;;
41925;SDS011;27615;51.826;5.692;2022-08-27T08:49:25;2.05;;;0.57;;
41925;SDS011;27615;51.826;5.692;2022-08-27T08:51:56;3.05;;;1.10;;
41925;SDS011;27615;51.826;5.692;2022-08-27T08:54:54;2.00;;;0.82;;
41925;SDS011;27615;51.826;5.692;2022-08-27T08:57:35;2.17;;;0.88;;
41925;SDS011;27615;51.826;5.692;2022-08-27T09:00:22;1.48;;;0.73;;
41925;SDS011;27615;51.826;5.692;2022-08-27T09:02:51;2.35;;;0.70;;
41925;SDS011;27615;51.826;5.692;2022-08-27T09:05:21;3.53;;;0.70;;
41925;SDS011;27615;51.826;5.692;2022-08-27T09:07:58;1.97;;;0.70;;
41925;SDS011;27615;51.826;5.692;2022-08-27T09:13:23;1.60;;;0.65;;
41925;SDS011;27615;51.826;5.692;2022-08-27T09:15:54;2.10;;;0.80;;
41925;SDS011;27615;51.826;5.692;2022-08-27T09:18:31;1.70;;;0.60;;
41925;SDS011;27615;51.826;5.692;2022-08-27T09:21:17;1.58;;;0.70;;
41925;SDS011;27615;51.826;5.692;2022-08-27T09:26:17;1.55;;;0.70;;
41925;SDS011;27615;51.826;5.692;2022-08-27T09:28:54;2.00;;;0.63;;
41925;SDS011;27615;51.826;5.692;2022-08-27T09:31:44;3.13;;;0.80;;
41925;SDS011;27615;51.826;5.692;2022-08-27T09:34:43;3.08;;;0.90;;
41925;SDS011;27615;51.826;5.692;2022-08-27T09:37:13;1.92;;;0.70;;
41925;SDS011;27615;51.826;5.692;2022-08-27T09:39:59;3.60;;;0.70;;
41925;SDS011;27615;51.826;5.692;2022-08-27T09:42:47;2.63;;;0.88;;
41925;SDS011;27615;51.826;5.692;2022-08-27T09:45:21;1.88;;;0.60;;
41925;SDS011;27615;51.826;5.692;2022-08-27T09:48:11;3.25;;;0.45;;
41925;SDS011;27615;51.826;5.692;2022-08-27T09:50:45;1.05;;;0.35;;
41925;SDS011;27615;51.826;5.692;2022-08-27T09:53:16;2.22;;;0.60;;
41925;SDS011;27615;51.826;5.692;2022-08-27T09:55:48;2.17;;;0.60;;
41925;SDS011;27615;51.826;5.692;2022-08-27T09:58:23;1.38;;;0.50;;
41925;SDS011;27615;51.826;5.692;2022-08-27T10:03:27;1.30;;;0.50;;
41925;SDS011;27615;51.826;5.692;2022-08-27T10:05:53;1.80;;;0.80;;
41925;SDS011;27615;51.826;5.692;2022-08-27T10:13:59;1.05;;;0.60;;
41925;SDS011;27615;51.826;5.692;2022-08-27T10:22:24;2.35;;;0.60;;
41925;SDS011;27615;51.826;5.692;2022-08-27T10:25:32;1.50;;;0.50;;
41925;SDS011;27615;51.826;5.692;2022-08-27T10:31:37;1.50;;;0.45;;
41925;SDS011;27615;51.826;5.692;2022-08-27T10:34:13;2.05;;;0.50;;
41925;SDS011;27615;51.826;5.692;2022-08-27T10:36:59;1.58;;;0.60;;
41925;SDS011;27615;51.826;5.692;2022-08-27T10:39:48;1.70;;;0.50;;
41925;SDS011;27615;51.826;5.692;2022-08-27T10:42:29;2.97;;;0.80;;
41925;SDS011;27615;51.826;5.692;2022-08-27T10:45:32;2.70;;;0.95;;
41925;SDS011;27615;51.826;5.692;2022-08-27T10:50:43;1.38;;;0.50;;
41925;SDS011;27615;51.826;5.692;2022-08-27T10:53:21;1.08;;;0.50;;
41925;SDS011;27615;51.826;5.692;2022-08-27T10:55:48;2.15;;;0.60;;
41925;SDS011;27615;51.826;5.692;2022-08-27T10:58:37;2.20;;;0.60;;
41925;SDS011;27615;51.826;5.692;2022-08-27T11:01:21;2.47;;;0.60;;
41925;SDS011;27615;51.826;5.692;2022-08-27T11:05:03;2.53;;;0.60;;
41925;SDS011;27615;51.826;5.692;2022-08-27T11:09:36;1.73;;;0.60;;
41925;SDS011;27615;51.826;5.692;2022-08-27T11:12:12;1.88;;;1.05;;
41925;SDS011;27615;51.826;5.692;2022-08-27T11:14:56;2.53;;;0.82;;
41925;SDS011;27615;51.826;5.692;2022-08-27T11:23:04;1.60;;;0.60;;
41925;SDS011;27615;51.826;5.692;2022-08-27T11:25:43;3.50;;;0.75;;
41925;SDS011;27615;51.826;5.692;2022-08-27T11:28:30;3.30;;;0.68;;
41925;SDS011;27615;51.826;5.692;2022-08-27T11:33:43;0.85;;;0.43;;
41925;SDS011;27615;51.826;5.692;2022-08-27T11:36:45;2.05;;;1.00;;
41925;SDS011;27615;51.826;5.692;2022-08-27T11:42:48;1.52;;;0.70;;
41925;SDS011;27615;51.826;5.692;2022-08-27T11:47:55;1.70;;;0.65;;
41925;SDS011;27615;51.826;5.692;2022-08-27T11:50:22;2.75;;;1.15;;
41925;SDS011;27615;51.826;5.692;2022-08-27T11:53:08;2.80;;;0.70;;
41925;SDS011;27615;51.826;5.692;2022-08-27T11:55:41;3.67;;;0.60;;
41925;SDS011;27615;51.826;5.692;2022-08-27T12:00:45;1.92;;;0.60;;
41925;SDS011;27615;51.826;5.692;2022-08-27T12:11:06;2.33;;;0.63;;
41925;SDS011;27615;51.826;5.692;2022-08-27T12:13:54;2.90;;;0.70;;
41925;SDS011;27615;51.826;5.692;2022-08-27T12:22:36;1.60;;;0.60;;
41925;SDS011;27615;51.826;5.692;2022-08-27T12:25:53;2.30;;;0.70;;
41925;SDS011;27615;51.826;5.692;2022-08-27T12:28:39;1.33;;;0.50;;
41925;SDS011;27615;51.826;5.692;2022-08-27T12:31:05;1.67;;;0.50;;
41925;SDS011;27615;51.826;5.692;2022-08-27T12:33:33;2.38;;;0.80;;
41925;SDS011;27615;51.826;5.692;2022-08-27T12:36:12;1.48;;;0.65;;
41925;SDS011;27615;51.826;5.692;2022-08-27T12:38:47;1.73;;;0.57;;
41925;SDS011;27615;51.826;5.692;2022-08-27T12:41:27;2.28;;;0.70;;
41925;SDS011;27615;51.826;5.692;2022-08-27T12:44:08;2.13;;;0.50;;
41925;SDS011;27615;51.826;5.692;2022-08-27T12:46:46;0.98;;;0.50;;
41925;SDS011;27615;51.826;5.692;2022-08-27T12:49:18;1.25;;;0.70;;
41925;SDS011;27615;51.826;5.692;2022-08-27T12:51:46;1.63;;;0.50;;
41925;SDS011;27615;51.826;5.692;2022-08-27T13:00:21;2.78;;;0.70;;
41925;SDS011;27615;51.826;5.692;2022-08-27T13:05:16;1.20;;;0.50;;
41925;SDS011;27615;51.826;5.692;2022-08-27T13:07:44;1.42;;;0.50;;
41925;SDS011;27615;51.826;5.692;2022-08-27T13:10:15;1.30;;;0.50;;
41925;SDS011;27615;51.826;5.692;2022-08-27T13:13:07;3.90;;;0.80;;
41925;SDS011;27615;51.826;5.692;2022-08-27T13:15:35;2.75;;;0.70;;
41925;SDS011;27615;51.826;5.692;2022-08-27T13:18:05;2.03;;;0.60;;
41925;SDS011;27615;51.826;5.692;2022-08-27T13:20:33;2.13;;;0.60;;
41925;SDS011;27615;51.826;5.692;2022-08-27T13:23:00;1.00;;;0.40;;
41925;SDS011;27615;51.826;5.692;2022-08-27T13:25:30;2.90;;;1.15;;
41925;SDS011;27615;51.826;5.692;2022-08-27T13:28:02;0.60;;;0.47;;
41925;SDS011;27615;51.826;5.692;2022-08-27T13:30:37;2.72;;;0.65;;
41925;SDS011;27615;51.826;5.692;2022-08-27T13:33:06;2.42;;;0.88;;
41925;SDS011;27615;51.826;5.692;2022-08-27T13:35:34;1.88;;;0.65;;
41925;SDS011;27615;51.826;5.692;2022-08-27T13:38:02;2.42;;;0.60;;
41925;SDS011;27615;51.826;5.692;2022-08-27T13:40:30;2.65;;;0.60;;
41925;SDS011;27615;51.826;5.692;2022-08-27T13:43:08;1.80;;;0.50;;
41925;SDS011;27615;51.826;5.692;2022-08-27T13:45:36;1.83;;;0.70;;
41925;SDS011;27615;51.826;5.692;2022-08-27T13:48:04;1.45;;;0.60;;
41925;SDS011;27615;51.826;5.692;2022-08-27T13:50:31;2.08;;;0.70;;
41925;SDS011;27615;51.826;5.692;2022-08-27T13:55:48;2.42;;;0.80;;
41925;SDS011;27615;51.826;5.692;2022-08-27T13:58:33;1.50;;;0.57;;
41925;SDS011;27615;51.826;5.692;2022-08-27T14:01:09;1.67;;;0.60;;
41925;SDS011;27615;51.826;5.692;2022-08-27T14:03:48;3.25;;;0.90;;
41925;SDS011;27615;51.826;5.692;2022-08-27T14:11:56;3.72;;;0.70;;
41925;SDS011;27615;51.826;5.692;2022-08-27T14:14:24;1.45;;;0.60;;
41925;SDS011;27615;51.826;5.692;2022-08-27T14:17:00;3.58;;;0.60;;
41925;SDS011;27615;51.826;5.692;2022-08-27T14:19:28;1.15;;;0.50;;
41925;SDS011;27615;51.826;5.692;2022-08-27T14:21:56;3.45;;;0.85;;
41925;SDS011;27615;51.826;5.692;2022-08-27T14:24:25;1.63;;;0.50;;
41925;SDS011;27615;51.826;5.692;2022-08-27T14:26:53;3.22;;;0.90;;
41925;SDS011;27615;51.826;5.692;2022-08-27T14:29:26;2.03;;;0.80;;
41925;SDS011;27615;51.826;5.692;2022-08-27T14:31:52;1.63;;;0.60;;
41925;SDS011;27615;51.826;5.692;2022-08-27T14:34:17;2.50;;;0.70;;
41925;SDS011;27615;51.826;5.692;2022-08-27T14:36:43;2.47;;;0.60;;
41925;SDS011;27615;51.826;5.692;2022-08-27T14:39:09;2.58;;;0.85;;
41925;SDS011;27615;51.826;5.692;2022-08-27T14:41:35;2.40;;;0.80;;
41925;SDS011;27615;51.826;5.692;2022-08-27T14:44:01;3.10;;;0.50;;
41925;SDS011;27615;51.826;5.692;2022-08-27T14:46:28;3.95;;;0.68;;
41925;SDS011;27615;51.826;5.692;2022-08-27T14:48:57;2.28;;;0.52;;
41925;SDS011;27615;51.826;5.692;2022-08-27T14:51:25;3.55;;;0.73;;
41925;SDS011;27615;51.826;5.692;2022-08-27T14:53:53;1.55;;;0.60;;
41925;SDS011;27615;51.826;5.692;2022-08-27T14:56:20;2.92;;;0.98;;
41925;SDS011;27615;51.826;5.692;2022-08-27T14:58:47;2.42;;;0.50;;
41925;SDS011;27615;51.826;5.692;2022-08-27T15:01:13;2.80;;;0.70;;
41925;SDS011;27615;51.826;5.692;2022-08-27T15:03:43;2.58;;;0.50;;
41925;SDS011;27615;51.826;5.692;2022-08-27T15:06:13;2.88;;;0.50;;
41925;SDS011;27615;51.826;5.692;2022-08-27T15:08:40;3.60;;;1.00;;
41925;SDS011;27615;51.826;5.692;2022-08-27T15:11:06;2.08;;;0.40;;
41925;SDS011;27615;51.826;5.692;2022-08-27T15:13:40;1.65;;;0.50;;
41925;SDS011;27615;51.826;5.692;2022-08-27T15:16:05;3.20;;;0.70;;
41925;SDS011;27615;51.826;5.692;2022-08-27T15:18:31;2.72;;;0.73;;
41925;SDS011;27615;51.826;5.692;2022-08-27T15:20:56;2.97;;;0.60;;
41925;SDS011;27615;51.826;5.692;2022-08-27T15:23:23;2.25;;;0.40;;
41925;SDS011;27615;51.826;5.692;2022-08-27T15:25:48;1.52;;;0.43;;
41925;SDS011;27615;51.826;5.692;2022-08-27T15:28:14;1.88;;;0.57;;
41925;SDS011;27615;51.826;5.692;2022-08-27T15:30:39;3.13;;;0.63;;
41925;SDS011;27615;51.826;5.692;2022-08-27T15:33:05;2.72;;;0.70;;
41925;SDS011;27615;51.826;5.692;2022-08-27T15:35:31;1.73;;;0.50;;
41925;SDS011;27615;51.826;5.692;2022-08-27T15:37:57;3.42;;;0.85;;
41925;SDS011;27615;51.826;5.692;2022-08-27T15:40:23;2.83;;;0.88;;
41925;SDS011;27615;51.826;5.692;2022-08-27T15:42:52;1.58;;;0.73;;
41925;SDS011;27615;51.826;5.692;2022-08-27T15:45:23;2.78;;;0.60;;
41925;SDS011;27615;51.826;5.692;2022-08-27T15:47:50;1.38;;;0.50;;
41925;SDS011;27615;51.826;5.692;2022-08-27T15:50:15;3.63;;;0.73;;
41925;SDS011;27615;51.826;5.692;2022-08-27T15:52:41;2.08;;;0.50;;
41925;SDS011;27615;51.826;5.692;2022-08-27T15:55:17;3.20;;;0.60;;
41925;SDS011;27615;51.826;5.692;2022-08-27T15:57:46;4.20;;;0.60;;
41925;SDS011;27615;51.826;5.692;2022-08-27T16:00:12;2.28;;;0.85;;
41925;SDS011;27615;51.826;5.692;2022-08-27T16:02:40;5.67;;;0.70;;
41925;SDS011;27615;51.826;5.692;2022-08-27T16:05:06;3.08;;;0.65;;
41925;SDS011;27615;51.826;5.692;2022-08-27T16:07:31;2.05;;;0.50;;
41925;SDS011;27615;51.826;5.692;2022-08-27T16:09:57;3.10;;;0.73;;
41925;SDS011;27615;51.826;5.692;2022-08-27T16:12:22;1.30;;;0.55;;
41925;SDS011;27615;51.826;5.692;2022-08-27T16:14:48;3.22;;;0.50;;
41925;SDS011;27615;51.826;5.692;2022-08-27T16:17:13;1.25;;;0.57;;
41925;SDS011;27615;51.826;5.692;2022-08-27T16:19:39;2.15;;;0.60;;
41925;SDS011;27615;51.826;5.692;2022-08-27T16:22:05;1.88;;;0.50;;
41925;SDS011;27615;51.826;5.692;2022-08-27T16:24:30;1.73;;;0.50;;
41925;SDS011;27615;51.826;5.692;2022-08-27T16:26:56;3.40;;;1.10;;
41925;SDS011;27615;51.826;5.692;2022-08-27T16:29:22;2.90;;;0.70;;